sensor_id;sensor_type;location;lat;lon;timestamp;temperature;humidity
27759;DHT22;15148;48.972;12.794;2024-02-23T00:02:48;7.90;99.90
27759;DHT22;15148;48.972;12.794;2024-02-23T00:07:50;8.00;99.90
27759;DHT22;15148;48.972;12.794;2024-02-23T00:12:52;8.00;99.90
27759;DHT22;15148;48.972;12.794;2024-02-23T00:17:54;8.10;99.90
27759;DHT22;15148;48.972;12.794;2024-02-23T00:22:56;8.10;99.90
27759;DHT22;15148;48.972;12.794;2024-02-23T00:27:58;8.00;99.90
27759;DHT22;15148;48.972;12.794;2024-02-23T00:33:00;7.90;99.90
27759;DHT22;15148;48.972;12.794;2024-02-23T00:38:02;7.80;99.90
27759;DHT22;15148;48.972;12.794;2024-02-23T00:43:04;7.70;99.90
27759;DHT22;15148;48.972;12.794;2024-02-23T00:48:07;7.60;99.90
27759;DHT22;15148;48.972;12.794;2024-02-23T00:53:14;7.60;99.90
27759;DHT22;15148;48.972;12.794;2024-02-23T00:58:16;7.50;99.90
27759;DHT22;15148;48.972;12.794;2024-02-23T01:03:18;7.50;99.90
27759;DHT22;15148;48.972;12.794;2024-02-23T01:08:20;7.40;99.90
27759;DHT22;15148;48.972;12.794;2024-02-23T01:13:22;7.50;99.90
27759;DHT22;15148;48.972;12.794;2024-02-23T01:18:24;7.50;99.90
27759;DHT22;15148;48.972;12.794;2024-02-23T01:23:27;7.40;99.90
27759;DHT22;15148;48.972;12.794;2024-02-23T01:28:29;7.40;99.90
27759;DHT22;15148;48.972;12.794;2024-02-23T01:33:30;7.40;99.90
27759;DHT22;15148;48.972;12.794;2024-02-23T01:38:32;7.40;99.90
27759;DHT22;15148;48.972;12.794;2024-02-23T01:43:35;7.30;99.90
27759;DHT22;15148;48.972;12.794;2024-02-23T01:48:39;7.30;99.90
27759;DHT22;15148;48.972;12.794;2024-02-23T01:53:41;7.20;99.90
27759;DHT22;15148;48.972;12.794;2024-02-23T01:58:43;7.10;99.90
27759;DHT22;15148;48.972;12.794;2024-02-23T02:03:46;7.20;99.90
27759;DHT22;15148;48.972;12.794;2024-02-23T02:08:48;7.10;99.90
27759;DHT22;15148;48.972;12.794;2024-02-23T02:13:50;7.10;99.90
27759;DHT22;15148;48.972;12.794;2024-02-23T02:18:52;7.10;99.90
27759;DHT22;15148;48.972;12.794;2024-02-23T02:23:54;7.10;99.90
27759;DHT22;15148;48.972;12.794;2024-02-23T02:28:56;7.20;99.90
27759;DHT22;15148;48.972;12.794;2024-02-23T02:33:58;7.30;99.90
27759;DHT22;15148;48.972;12.794;2024-02-23T02:39:00;7.30;99.90
27759;DHT22;15148;48.972;12.794;2024-02-23T02:44:02;7.40;99.90
27759;DHT22;15148;48.972;12.794;2024-02-23T02:49:04;7.40;99.90
27759;DHT22;15148;48.972;12.794;2024-02-23T02:54:06;7.10;99.90
27759;DHT22;15148;48.972;12.794;2024-02-23T02:59:08;6.80;99.90
27759;DHT22;15148;48.972;12.794;2024-02-23T03:04:10;6.70;99.90
27759;DHT22;15148;48.972;12.794;2024-02-23T03:09:12;6.50;99.90
27759;DHT22;15148;48.972;12.794;2024-02-23T03:14:14;6.40;99.90
27759;DHT22;15148;48.972;12.794;2024-02-23T03:19:16;6.30;99.90
27759;DHT22;15148;48.972;12.794;2024-02-23T03:24:18;6.20;99.90
27759;DHT22;15148;48.972;12.794;2024-02-23T03:29:20;6.20;99.90
27759;DHT22;15148;48.972;12.794;2024-02-23T03:34:24;6.20;99.90
27759;DHT22;15148;48.972;12.794;2024-02-23T03:39:26;6.10;99.90
27759;DHT22;15148;48.972;12.794;2024-02-23T03:44:28;6.00;99.90
27759;DHT22;15148;48.972;12.794;2024-02-23T03:49:30;6.00;99.90
27759;DHT22;15148;48.972;12.794;2024-02-23T03:54:32;6.00;99.90
27759;DHT22;15148;48.972;12.794;2024-02-23T03:59:36;6.00;99.90
27759;DHT22;15148;48.972;12.794;2024-02-23T04:04:39;6.00;99.90
27759;DHT22;15148;48.972;12.794;2024-02-23T04:09:41;6.10;99.90
27759;DHT22;15148;48.972;12.794;2024-02-23T04:14:43;6.00;99.90
27759;DHT22;15148;48.972;12.794;2024-02-23T04:19:45;6.00;99.90
27759;DHT22;15148;48.972;12.794;2024-02-23T04:24:47;6.00;99.90
27759;DHT22;15148;48.972;12.794;2024-02-23T04:29:48;5.90;99.90
27759;DHT22;15148;48.972;12.794;2024-02-23T04:34:50;5.80;99.90
27759;DHT22;15148;48.972;12.794;2024-02-23T04:39:52;5.80;99.90
27759;DHT22;15148;48.972;12.794;2024-02-23T04:44:54;5.70;99.90
27759;DHT22;15148;48.972;12.794;2024-02-23T04:49:56;5.70;99.90
27759;DHT22;15148;48.972;12.794;2024-02-23T04:54:59;5.70;99.90
27759;DHT22;15148;48.972;12.794;2024-02-23T05:00:01;5.70;99.90
27759;DHT22;15148;48.972;12.794;2024-02-23T05:05:04;5.60;99.90
27759;DHT22;15148;48.972;12.794;2024-02-23T05:10:07;5.30;99.90
27759;DHT22;15148;48.972;12.794;2024-02-23T05:15:09;5.20;99.90
27759;DHT22;15148;48.972;12.794;2024-02-23T05:20:12;5.10;99.90
27759;DHT22;15148;48.972;12.794;2024-02-23T05:25:15;5.10;99.90
27759;DHT22;15148;48.972;12.794;2024-02-23T05:30:17;5.00;99.90
27759;DHT22;15148;48.972;12.794;2024-02-23T05:35:19;5.10;99.90
27759;DHT22;15148;48.972;12.794;2024-02-23T05:40:21;5.00;99.90
27759;DHT22;15148;48.972;12.794;2024-02-23T05:45:23;5.10;99.90
27759;DHT22;15148;48.972;12.794;2024-02-23T05:50:25;5.00;99.90
27759;DHT22;15148;48.972;12.794;2024-02-23T05:55:27;5.10;99.90
27759;DHT22;15148;48.972;12.794;2024-02-23T06:00:30;5.10;99.90
27759;DHT22;15148;48.972;12.794;2024-02-23T06:05:33;5.10;99.90
27759;DHT22;15148;48.972;12.794;2024-02-23T06:10:35;5.10;99.90
27759;DHT22;15148;48.972;12.794;2024-02-23T06:15:39;5.10;99.90
27759;DHT22;15148;48.972;12.794;2024-02-23T06:20:42;5.10;99.90
27759;DHT22;15148;48.972;12.794;2024-02-23T06:25:44;5.10;99.90
27759;DHT22;15148;48.972;12.794;2024-02-23T06:30:48;5.10;99.90
27759;DHT22;15148;48.972;12.794;2024-02-23T06:35:50;5.10;99.90
27759;DHT22;15148;48.972;12.794;2024-02-23T06:40:52;5.10;99.90
27759;DHT22;15148;48.972;12.794;2024-02-23T06:45:54;5.20;99.90
27759;DHT22;15148;48.972;12.794;2024-02-23T06:50:56;5.20;99.90
27759;DHT22;15148;48.972;12.794;2024-02-23T06:55:59;5.30;99.90
27759;DHT22;15148;48.972;12.794;2024-02-23T07:01:02;5.30;99.90
27759;DHT22;15148;48.972;12.794;2024-02-23T07:06:05;5.30;99.90
27759;DHT22;15148;48.972;12.794;2024-02-23T07:11:07;5.40;99.90
27759;DHT22;15148;48.972;12.794;2024-02-23T07:16:09;5.50;99.90
27759;DHT22;15148;48.972;12.794;2024-02-23T07:21:11;5.50;99.90
27759;DHT22;15148;48.972;12.794;2024-02-23T07:26:13;5.50;99.90
27759;DHT22;15148;48.972;12.794;2024-02-23T07:31:15;5.50;99.90
27759;DHT22;15148;48.972;12.794;2024-02-23T07:36:17;5.60;99.90
27759;DHT22;15148;48.972;12.794;2024-02-23T07:41:19;5.70;99.90
27759;DHT22;15148;48.972;12.794;2024-02-23T07:46:22;5.60;99.90
27759;DHT22;15148;48.972;12.794;2024-02-23T07:51:28;5.60;99.90
27759;DHT22;15148;48.972;12.794;2024-02-23T07:56:30;5.60;99.90
27759;DHT22;15148;48.972;12.794;2024-02-23T08:01:32;5.70;99.90
27759;DHT22;15148;48.972;12.794;2024-02-23T08:06:38;5.60;99.90
27759;DHT22;15148;48.972;12.794;2024-02-23T08:11:40;5.70;99.90
27759;DHT22;15148;48.972;12.794;2024-02-23T08:16:43;5.70;99.90
27759;DHT22;15148;48.972;12.794;2024-02-23T08:21:45;5.70;99.90
27759;DHT22;15148;48.972;12.794;2024-02-23T08:26:47;5.80;99.90
27759;DHT22;15148;48.972;12.794;2024-02-23T08:31:49;5.80;99.90
27759;DHT22;15148;48.972;12.794;2024-02-23T08:36:51;5.80;99.90
27759;DHT22;15148;48.972;12.794;2024-02-23T08:41:53;5.80;99.90
27759;DHT22;15148;48.972;12.794;2024-02-23T08:46:56;5.90;99.90
27759;DHT22;15148;48.972;12.794;2024-02-23T08:51:58;5.90;99.90
27759;DHT22;15148;48.972;12.794;2024-02-23T08:57:00;5.90;99.90
27759;DHT22;15148;48.972;12.794;2024-02-23T09:02:02;6.00;99.90
27759;DHT22;15148;48.972;12.794;2024-02-23T09:07:05;6.10;99.90
27759;DHT22;15148;48.972;12.794;2024-02-23T09:12:08;6.20;99.90
27759;DHT22;15148;48.972;12.794;2024-02-23T09:17:13;6.40;99.90
27759;DHT22;15148;48.972;12.794;2024-02-23T09:22:15;6.60;99.90
27759;DHT22;15148;48.972;12.794;2024-02-23T09:27:20;6.60;99.90
27759;DHT22;15148;48.972;12.794;2024-02-23T09:32:22;6.70;99.90
27759;DHT22;15148;48.972;12.794;2024-02-23T09:37:24;6.60;99.90
27759;DHT22;15148;48.972;12.794;2024-02-23T09:42:26;6.60;99.90
27759;DHT22;15148;48.972;12.794;2024-02-23T09:47:33;6.50;99.90
27759;DHT22;15148;48.972;12.794;2024-02-23T09:52:36;6.60;99.90
27759;DHT22;15148;48.972;12.794;2024-02-23T09:57:38;6.70;99.90
27759;DHT22;15148;48.972;12.794;2024-02-23T10:02:41;6.60;99.90
27759;DHT22;15148;48.972;12.794;2024-02-23T10:07:43;6.50;99.90
27759;DHT22;15148;48.972;12.794;2024-02-23T10:12:47;6.30;99.90
27759;DHT22;15148;48.972;12.794;2024-02-23T10:17:49;6.30;99.90
27759;DHT22;15148;48.972;12.794;2024-02-23T10:22:52;6.30;99.90
27759;DHT22;15148;48.972;12.794;2024-02-23T10:27:55;6.20;99.90
27759;DHT22;15148;48.972;12.794;2024-02-23T10:32:58;6.20;99.90
27759;DHT22;15148;48.972;12.794;2024-02-23T10:38:01;6.20;99.90
27759;DHT22;15148;48.972;12.794;2024-02-23T10:43:12;6.20;99.90
27759;DHT22;15148;48.972;12.794;2024-02-23T10:48:17;6.20;99.90
27759;DHT22;15148;48.972;12.794;2024-02-23T10:53:21;6.30;99.90
27759;DHT22;15148;48.972;12.794;2024-02-23T10:58:23;6.30;99.90
27759;DHT22;15148;48.972;12.794;2024-02-23T11:03:25;6.20;99.90
27759;DHT22;15148;48.972;12.794;2024-02-23T11:08:32;6.30;99.90
27759;DHT22;15148;48.972;12.794;2024-02-23T11:13:35;6.30;99.90
27759;DHT22;15148;48.972;12.794;2024-02-23T11:18:41;6.30;99.90
27759;DHT22;15148;48.972;12.794;2024-02-23T11:23:48;6.30;99.90
27759;DHT22;15148;48.972;12.794;2024-02-23T11:28:53;6.30;99.90
27759;DHT22;15148;48.972;12.794;2024-02-23T11:33:57;6.30;99.90
27759;DHT22;15148;48.972;12.794;2024-02-23T11:39:00;6.30;99.90
27759;DHT22;15148;48.972;12.794;2024-02-23T11:44:02;6.30;99.90
27759;DHT22;15148;48.972;12.794;2024-02-23T11:49:05;6.20;99.90
27759;DHT22;15148;48.972;12.794;2024-02-23T11:54:07;6.30;99.90
27759;DHT22;15148;48.972;12.794;2024-02-23T11:59:10;6.30;99.90
27759;DHT22;15148;48.972;12.794;2024-02-23T12:04:12;6.30;99.90
27759;DHT22;15148;48.972;12.794;2024-02-23T12:09:16;6.40;99.90
27759;DHT22;15148;48.972;12.794;2024-02-23T12:14:18;6.40;99.90
27759;DHT22;15148;48.972;12.794;2024-02-23T12:19:20;6.50;99.90
27759;DHT22;15148;48.972;12.794;2024-02-23T12:24:21;6.50;99.90
27759;DHT22;15148;48.972;12.794;2024-02-23T12:29:25;6.50;99.90
27759;DHT22;15148;48.972;12.794;2024-02-23T12:34:27;6.50;99.90
27759;DHT22;15148;48.972;12.794;2024-02-23T12:39:47;6.50;99.90
27759;DHT22;15148;48.972;12.794;2024-02-23T12:44:49;6.40;99.90
27759;DHT22;15148;48.972;12.794;2024-02-23T12:49:51;6.40;99.90
27759;DHT22;15148;48.972;12.794;2024-02-23T12:54:54;6.40;99.90
27759;DHT22;15148;48.972;12.794;2024-02-23T12:59:55;6.40;99.90
27759;DHT22;15148;48.972;12.794;2024-02-23T13:04:57;6.50;99.90
27759;DHT22;15148;48.972;12.794;2024-02-23T13:09:59;6.50;99.90
27759;DHT22;15148;48.972;12.794;2024-02-23T13:15:02;6.40;99.90
27759;DHT22;15148;48.972;12.794;2024-02-23T13:20:04;6.40;99.90
27759;DHT22;15148;48.972;12.794;2024-02-23T13:25:12;6.40;99.90
27759;DHT22;15148;48.972;12.794;2024-02-23T13:30:15;6.40;99.90
27759;DHT22;15148;48.972;12.794;2024-02-23T13:35:17;6.40;99.90
27759;DHT22;15148;48.972;12.794;2024-02-23T13:40:19;6.50;99.90
27759;DHT22;15148;48.972;12.794;2024-02-23T13:45:21;6.40;99.90
27759;DHT22;15148;48.972;12.794;2024-02-23T13:50:26;6.40;99.90
27759;DHT22;15148;48.972;12.794;2024-02-23T13:55:28;6.30;99.90
27759;DHT22;15148;48.972;12.794;2024-02-23T14:00:30;6.40;99.90
27759;DHT22;15148;48.972;12.794;2024-02-23T14:05:32;6.40;99.90
27759;DHT22;15148;48.972;12.794;2024-02-23T14:10:34;6.30;99.90
27759;DHT22;15148;48.972;12.794;2024-02-23T14:15:36;6.30;99.90
27759;DHT22;15148;48.972;12.794;2024-02-23T14:20:38;6.20;99.90
27759;DHT22;15148;48.972;12.794;2024-02-23T14:25:40;6.10;99.90
27759;DHT22;15148;48.972;12.794;2024-02-23T14:30:42;6.00;99.90
27759;DHT22;15148;48.972;12.794;2024-02-23T14:35:45;6.00;99.90
27759;DHT22;15148;48.972;12.794;2024-02-23T14:40:47;6.00;99.90
27759;DHT22;15148;48.972;12.794;2024-02-23T14:45:49;6.00;99.90
27759;DHT22;15148;48.972;12.794;2024-02-23T14:50:53;6.00;99.90
27759;DHT22;15148;48.972;12.794;2024-02-23T14:55:55;6.00;99.90
27759;DHT22;15148;48.972;12.794;2024-02-23T15:00:59;5.90;99.90
27759;DHT22;15148;48.972;12.794;2024-02-23T15:06:01;5.80;99.90
27759;DHT22;15148;48.972;12.794;2024-02-23T15:11:04;5.70;99.90
27759;DHT22;15148;48.972;12.794;2024-02-23T15:16:07;5.60;99.90
27759;DHT22;15148;48.972;12.794;2024-02-23T15:21:09;5.60;99.90
27759;DHT22;15148;48.972;12.794;2024-02-23T15:26:11;5.50;99.90
27759;DHT22;15148;48.972;12.794;2024-02-23T15:31:14;5.50;99.90
27759;DHT22;15148;48.972;12.794;2024-02-23T15:36:16;5.50;99.90
27759;DHT22;15148;48.972;12.794;2024-02-23T15:41:19;5.40;99.90
27759;DHT22;15148;48.972;12.794;2024-02-23T15:46:21;5.30;99.90
27759;DHT22;15148;48.972;12.794;2024-02-23T15:51:23;5.20;99.90
27759;DHT22;15148;48.972;12.794;2024-02-23T15:56:45;5.20;99.90
27759;DHT22;15148;48.972;12.794;2024-02-23T16:01:47;5.10;99.90
27759;DHT22;15148;48.972;12.794;2024-02-23T16:06:49;5.10;99.90
27759;DHT22;15148;48.972;12.794;2024-02-23T16:11:51;5.00;99.90
27759;DHT22;15148;48.972;12.794;2024-02-23T16:16:54;5.00;99.90
27759;DHT22;15148;48.972;12.794;2024-02-23T16:21:56;4.90;99.90
27759;DHT22;15148;48.972;12.794;2024-02-23T16:26:58;4.80;99.90
27759;DHT22;15148;48.972;12.794;2024-02-23T16:32:00;4.70;99.90
27759;DHT22;15148;48.972;12.794;2024-02-23T16:37:02;4.80;99.90
27759;DHT22;15148;48.972;12.794;2024-02-23T16:42:04;4.70;99.90
27759;DHT22;15148;48.972;12.794;2024-02-23T16:47:08;4.70;99.90
27759;DHT22;15148;48.972;12.794;2024-02-23T16:52:10;4.70;99.90
27759;DHT22;15148;48.972;12.794;2024-02-23T16:57:12;4.70;99.90
27759;DHT22;15148;48.972;12.794;2024-02-23T17:02:14;4.70;99.90
27759;DHT22;15148;48.972;12.794;2024-02-23T17:07:16;4.60;99.90
27759;DHT22;15148;48.972;12.794;2024-02-23T17:12:18;4.60;99.90
27759;DHT22;15148;48.972;12.794;2024-02-23T17:17:22;4.50;99.90
27759;DHT22;15148;48.972;12.794;2024-02-23T17:22:24;4.50;99.90
27759;DHT22;15148;48.972;12.794;2024-02-23T17:27:28;4.50;99.90
27759;DHT22;15148;48.972;12.794;2024-02-23T17:32:32;4.50;99.90
27759;DHT22;15148;48.972;12.794;2024-02-23T17:37:34;4.40;99.90
27759;DHT22;15148;48.972;12.794;2024-02-23T17:42:36;4.40;99.90
27759;DHT22;15148;48.972;12.794;2024-02-23T17:47:38;4.30;99.90
27759;DHT22;15148;48.972;12.794;2024-02-23T17:52:40;4.30;99.90
27759;DHT22;15148;48.972;12.794;2024-02-23T17:57:42;4.30;99.90
27759;DHT22;15148;48.972;12.794;2024-02-23T18:02:45;4.20;99.90
27759;DHT22;15148;48.972;12.794;2024-02-23T18:07:47;4.20;99.90
27759;DHT22;15148;48.972;12.794;2024-02-23T18:12:49;4.20;99.90
27759;DHT22;15148;48.972;12.794;2024-02-23T18:17:51;4.10;99.90
27759;DHT22;15148;48.972;12.794;2024-02-23T18:22:53;4.10;99.90
27759;DHT22;15148;48.972;12.794;2024-02-23T18:27:56;4.10;99.90
27759;DHT22;15148;48.972;12.794;2024-02-23T18:32:58;4.10;99.90
27759;DHT22;15148;48.972;12.794;2024-02-23T18:38:00;4.10;99.90
27759;DHT22;15148;48.972;12.794;2024-02-23T18:43:02;4.10;99.90
27759;DHT22;15148;48.972;12.794;2024-02-23T18:48:05;4.10;99.90
27759;DHT22;15148;48.972;12.794;2024-02-23T18:53:08;4.10;99.90
27759;DHT22;15148;48.972;12.794;2024-02-23T18:58:10;4.10;99.90
27759;DHT22;15148;48.972;12.794;2024-02-23T19:03:12;4.00;99.90
27759;DHT22;15148;48.972;12.794;2024-02-23T19:08:14;4.10;99.90
27759;DHT22;15148;48.972;12.794;2024-02-23T19:13:16;4.10;99.90
27759;DHT22;15148;48.972;12.794;2024-02-23T19:18:18;4.10;99.90
27759;DHT22;15148;48.972;12.794;2024-02-23T19:23:22;4.10;99.90
27759;DHT22;15148;48.972;12.794;2024-02-23T19:28:24;4.10;99.90
27759;DHT22;15148;48.972;12.794;2024-02-23T19:33:26;4.10;99.90
27759;DHT22;15148;48.972;12.794;2024-02-23T19:38:29;4.10;99.90
27759;DHT22;15148;48.972;12.794;2024-02-23T19:43:31;4.10;99.90
27759;DHT22;15148;48.972;12.794;2024-02-23T19:48:33;4.10;99.90
27759;DHT22;15148;48.972;12.794;2024-02-23T19:53:36;4.10;99.90
27759;DHT22;15148;48.972;12.794;2024-02-23T19:58:38;4.00;99.90
27759;DHT22;15148;48.972;12.794;2024-02-23T20:03:40;4.00;99.90
27759;DHT22;15148;48.972;12.794;2024-02-23T20:08:42;4.00;99.90
27759;DHT22;15148;48.972;12.794;2024-02-23T20:13:44;4.00;99.90
27759;DHT22;15148;48.972;12.794;2024-02-23T20:18:48;4.00;99.90
27759;DHT22;15148;48.972;12.794;2024-02-23T20:23:50;4.00;99.90
27759;DHT22;15148;48.972;12.794;2024-02-23T20:28:53;4.00;99.90
27759;DHT22;15148;48.972;12.794;2024-02-23T20:33:55;4.00;99.90
27759;DHT22;15148;48.972;12.794;2024-02-23T20:38:57;4.00;99.90
27759;DHT22;15148;48.972;12.794;2024-02-23T20:43:59;4.00;99.90
27759;DHT22;15148;48.972;12.794;2024-02-23T20:49:01;4.00;99.90
27759;DHT22;15148;48.972;12.794;2024-02-23T20:54:04;4.00;99.90
27759;DHT22;15148;48.972;12.794;2024-02-23T20:59:08;3.90;99.90
27759;DHT22;15148;48.972;12.794;2024-02-23T21:04:10;3.70;99.90
27759;DHT22;15148;48.972;12.794;2024-02-23T21:09:12;3.70;99.90
27759;DHT22;15148;48.972;12.794;2024-02-23T21:14:14;3.60;99.90
27759;DHT22;15148;48.972;12.794;2024-02-23T21:19:16;3.50;99.90
27759;DHT22;15148;48.972;12.794;2024-02-23T21:24:18;3.50;99.90
27759;DHT22;15148;48.972;12.794;2024-02-23T21:29:20;3.40;99.90
27759;DHT22;15148;48.972;12.794;2024-02-23T21:34:22;3.50;99.90
27759;DHT22;15148;48.972;12.794;2024-02-23T21:39:24;3.50;99.90
27759;DHT22;15148;48.972;12.794;2024-02-23T21:44:27;3.50;99.90
27759;DHT22;15148;48.972;12.794;2024-02-23T21:49:29;3.40;99.90
27759;DHT22;15148;48.972;12.794;2024-02-23T21:54:32;3.20;99.90
27759;DHT22;15148;48.972;12.794;2024-02-23T21:59:34;3.10;99.90
27759;DHT22;15148;48.972;12.794;2024-02-23T22:04:36;3.10;99.90
27759;DHT22;15148;48.972;12.794;2024-02-23T22:09:40;3.10;99.90
27759;DHT22;15148;48.972;12.794;2024-02-23T22:14:46;3.10;99.90
27759;DHT22;15148;48.972;12.794;2024-02-23T22:19:48;3.00;99.90
27759;DHT22;15148;48.972;12.794;2024-02-23T22:24:50;3.00;99.90
27759;DHT22;15148;48.972;12.794;2024-02-23T22:29:55;2.90;99.90
27759;DHT22;15148;48.972;12.794;2024-02-23T22:34:58;3.00;99.90
27759;DHT22;15148;48.972;12.794;2024-02-23T22:40:00;2.90;99.90
27759;DHT22;15148;48.972;12.794;2024-02-23T22:45:02;2.90;99.90
27759;DHT22;15148;48.972;12.794;2024-02-23T22:50:05;2.80;99.90
27759;DHT22;15148;48.972;12.794;2024-02-23T22:55:07;2.80;99.90
27759;DHT22;15148;48.972;12.794;2024-02-23T23:00:10;2.80;99.90
27759;DHT22;15148;48.972;12.794;2024-02-23T23:05:12;2.80;99.90
27759;DHT22;15148;48.972;12.794;2024-02-23T23:10:14;2.80;99.90
27759;DHT22;15148;48.972;12.794;2024-02-23T23:15:16;2.80;99.90
27759;DHT22;15148;48.972;12.794;2024-02-23T23:20:18;2.80;99.90
27759;DHT22;15148;48.972;12.794;2024-02-23T23:25:21;2.80;99.90
27759;DHT22;15148;48.972;12.794;2024-02-23T23:30:23;2.70;99.90
27759;DHT22;15148;48.972;12.794;2024-02-23T23:35:25;2.70;99.90
27759;DHT22;15148;48.972;12.794;2024-02-23T23:40:27;2.70;99.90
27759;DHT22;15148;48.972;12.794;2024-02-23T23:45:29;2.60;99.90
27759;DHT22;15148;48.972;12.794;2024-02-23T23:50:31;2.50;99.90
27759;DHT22;15148;48.972;12.794;2024-02-23T23:55:33;2.60;99.90
